sensor_id;sensor_type;location;lat;lon;timestamp;P1;durP1;ratioP1;P2;durP2;ratioP2
72085;SDS011;64750;52.134;5.424;2023-08-30T00:01:57;4.47;;;4.18;;
72085;SDS011;64750;52.134;5.424;2023-08-30T00:04:23;4.57;;;4.23;;
72085;SDS011;64750;52.134;5.424;2023-08-30T00:06:50;4.57;;;4.18;;
72085;SDS011;64750;52.134;5.424;2023-08-30T00:09:16;4.57;;;4.28;;
72085;SDS011;64750;52.134;5.424;2023-08-30T00:11:43;5.65;;;5.10;;
72085;SDS011;64750;52.134;5.424;2023-08-30T00:14:10;5.30;;;4.75;;
72085;SDS011;64750;52.134;5.424;2023-08-30T00:16:36;5.47;;;4.97;;
72085;SDS011;64750;52.134;5.424;2023-08-30T00:19:04;5.90;;;4.75;;
72085;SDS011;64750;52.134;5.424;2023-08-30T00:21:32;5.80;;;5.30;;
72085;SDS011;64750;52.134;5.424;2023-08-30T00:23:58;5.60;;;5.10;;
72085;SDS011;64750;52.134;5.424;2023-08-30T00:26:24;5.50;;;5.10;;
72085;SDS011;64750;52.134;5.424;2023-08-30T00:28:51;6.73;;;5.20;;
72085;SDS011;64750;52.134;5.424;2023-08-30T00:31:17;5.57;;;5.07;;
72085;SDS011;64750;52.134;5.424;2023-08-30T00:33:44;5.22;;;4.75;;
72085;SDS011;64750;52.134;5.424;2023-08-30T00:36:11;5.70;;;5.15;;
72085;SDS011;64750;52.134;5.424;2023-08-30T00:38:37;6.30;;;5.35;;
72085;SDS011;64750;52.134;5.424;2023-08-30T00:41:04;5.47;;;5.07;;
72085;SDS011;64750;52.134;5.424;2023-08-30T00:43:30;5.93;;;5.45;;
72085;SDS011;64750;52.134;5.424;2023-08-30T00:45:57;7.10;;;5.45;;
72085;SDS011;64750;52.134;5.424;2023-08-30T00:48:23;5.72;;;5.22;;
72085;SDS011;64750;52.134;5.424;2023-08-30T00:50:50;5.82;;;5.43;;
72085;SDS011;64750;52.134;5.424;2023-08-30T00:53:16;6.13;;;5.63;;
72085;SDS011;64750;52.134;5.424;2023-08-30T00:55:43;5.55;;;5.13;;
72085;SDS011;64750;52.134;5.424;2023-08-30T00:58:10;6.85;;;6.25;;
72085;SDS011;64750;52.134;5.424;2023-08-30T01:00:37;6.18;;;5.60;;
72085;SDS011;64750;52.134;5.424;2023-08-30T01:03:06;6.10;;;5.60;;
72085;SDS011;64750;52.134;5.424;2023-08-30T01:05:36;6.00;;;5.50;;
72085;SDS011;64750;52.134;5.424;2023-08-30T01:08:02;6.20;;;5.50;;
72085;SDS011;64750;52.134;5.424;2023-08-30T01:13:37;7.88;;;5.47;;
72085;SDS011;64750;52.134;5.424;2023-08-30T01:16:08;5.60;;;5.10;;
72085;SDS011;64750;52.134;5.424;2023-08-30T01:18:35;6.13;;;5.23;;
72085;SDS011;64750;52.134;5.424;2023-08-30T01:21:04;6.10;;;5.30;;
72085;SDS011;64750;52.134;5.424;2023-08-30T01:23:42;6.28;;;5.35;;
72085;SDS011;64750;52.134;5.424;2023-08-30T01:26:26;5.57;;;5.03;;
72085;SDS011;64750;52.134;5.424;2023-08-30T01:29:07;5.43;;;4.93;;
72085;SDS011;64750;52.134;5.424;2023-08-30T01:31:37;5.20;;;4.80;;
72085;SDS011;64750;52.134;5.424;2023-08-30T01:34:06;5.72;;;5.22;;
72085;SDS011;64750;52.134;5.424;2023-08-30T01:36:33;5.28;;;4.88;;
72085;SDS011;64750;52.134;5.424;2023-08-30T01:39:00;5.25;;;4.85;;
72085;SDS011;64750;52.134;5.424;2023-08-30T01:41:27;5.53;;;5.07;;
72085;SDS011;64750;52.134;5.424;2023-08-30T01:43:55;5.40;;;4.90;;
72085;SDS011;64750;52.134;5.424;2023-08-30T01:46:25;5.05;;;4.65;;
72085;SDS011;64750;52.134;5.424;2023-08-30T01:48:52;5.38;;;4.88;;
72085;SDS011;64750;52.134;5.424;2023-08-30T01:51:20;5.28;;;4.90;;
72085;SDS011;64750;52.134;5.424;2023-08-30T01:53:46;5.07;;;4.68;;
72085;SDS011;64750;52.134;5.424;2023-08-30T01:56:14;5.53;;;4.67;;
72085;SDS011;64750;52.134;5.424;2023-08-30T01:58:40;5.63;;;5.22;;
72085;SDS011;64750;52.134;5.424;2023-08-30T02:01:07;6.82;;;5.07;;
72085;SDS011;64750;52.134;5.424;2023-08-30T02:03:34;5.70;;;5.10;;
72085;SDS011;64750;52.134;5.424;2023-08-30T02:09:07;6.00;;;4.90;;
72085;SDS011;64750;52.134;5.424;2023-08-30T02:11:41;6.00;;;5.40;;
72085;SDS011;64750;52.134;5.424;2023-08-30T02:14:10;5.75;;;5.20;;
72085;SDS011;64750;52.134;5.424;2023-08-30T02:16:42;9.32;;;6.20;;
72085;SDS011;64750;52.134;5.424;2023-08-30T02:19:08;5.55;;;5.07;;
72085;SDS011;64750;52.134;5.424;2023-08-30T02:21:36;5.90;;;5.40;;
72085;SDS011;64750;52.134;5.424;2023-08-30T02:24:03;6.03;;;5.43;;
72085;SDS011;64750;52.134;5.424;2023-08-30T02:26:30;6.22;;;5.40;;
72085;SDS011;64750;52.134;5.424;2023-08-30T02:28:57;5.85;;;5.20;;
72085;SDS011;64750;52.134;5.424;2023-08-30T02:31:23;6.45;;;5.60;;
72085;SDS011;64750;52.134;5.424;2023-08-30T02:33:50;6.40;;;5.63;;
72085;SDS011;64750;52.134;5.424;2023-08-30T02:36:16;5.90;;;5.47;;
72085;SDS011;64750;52.134;5.424;2023-08-30T02:38:43;6.43;;;5.82;;
72085;SDS011;64750;52.134;5.424;2023-08-30T02:41:09;5.85;;;5.28;;
72085;SDS011;64750;52.134;5.424;2023-08-30T02:43:39;6.25;;;5.65;;
72085;SDS011;64750;52.134;5.424;2023-08-30T02:46:05;7.60;;;6.00;;
72085;SDS011;64750;52.134;5.424;2023-08-30T02:48:32;8.32;;;6.50;;
72085;SDS011;64750;52.134;5.424;2023-08-30T02:50:59;7.03;;;6.05;;
72085;SDS011;64750;52.134;5.424;2023-08-30T02:53:26;6.70;;;6.10;;
72085;SDS011;64750;52.134;5.424;2023-08-30T02:55:52;6.80;;;6.20;;
72085;SDS011;64750;52.134;5.424;2023-08-30T02:58:21;6.47;;;5.87;;
72085;SDS011;64750;52.134;5.424;2023-08-30T03:00:48;6.88;;;6.20;;
72085;SDS011;64750;52.134;5.424;2023-08-30T03:03:15;8.60;;;6.70;;
72085;SDS011;64750;52.134;5.424;2023-08-30T03:05:41;6.68;;;6.07;;
72085;SDS011;64750;52.134;5.424;2023-08-30T03:08:08;9.23;;;7.10;;
72085;SDS011;64750;52.134;5.424;2023-08-30T03:10:35;8.90;;;6.53;;
72085;SDS011;64750;52.134;5.424;2023-08-30T03:13:01;7.07;;;6.10;;
72085;SDS011;64750;52.134;5.424;2023-08-30T03:15:30;8.48;;;7.00;;
72085;SDS011;64750;52.134;5.424;2023-08-30T03:17:58;7.18;;;6.68;;
72085;SDS011;64750;52.134;5.424;2023-08-30T03:20:25;8.07;;;7.38;;
72085;SDS011;64750;52.134;5.424;2023-08-30T03:22:51;7.83;;;7.03;;
72085;SDS011;64750;52.134;5.424;2023-08-30T03:25:18;10.05;;;7.68;;
72085;SDS011;64750;52.134;5.424;2023-08-30T03:27:44;8.10;;;6.75;;
72085;SDS011;64750;52.134;5.424;2023-08-30T03:30:11;7.65;;;6.95;;
72085;SDS011;64750;52.134;5.424;2023-08-30T03:32:38;7.38;;;6.78;;
72085;SDS011;64750;52.134;5.424;2023-08-30T03:35:05;10.50;;;6.80;;
72085;SDS011;64750;52.134;5.424;2023-08-30T03:37:32;8.48;;;7.35;;
72085;SDS011;64750;52.134;5.424;2023-08-30T03:39:58;8.23;;;7.30;;
72085;SDS011;64750;52.134;5.424;2023-08-30T03:42:25;8.75;;;7.13;;
72085;SDS011;64750;52.134;5.424;2023-08-30T03:44:51;8.48;;;7.32;;
72085;SDS011;64750;52.134;5.424;2023-08-30T03:47:18;8.27;;;6.87;;
72085;SDS011;64750;52.134;5.424;2023-08-30T03:49:44;7.70;;;6.40;;
72085;SDS011;64750;52.134;5.424;2023-08-30T03:52:11;8.05;;;6.93;;
72085;SDS011;64750;52.134;5.424;2023-08-30T03:54:39;8.35;;;5.88;;
72085;SDS011;64750;52.134;5.424;2023-08-30T03:57:05;7.80;;;6.90;;
72085;SDS011;64750;52.134;5.424;2023-08-30T03:59:32;8.67;;;6.97;;
72085;SDS011;64750;52.134;5.424;2023-08-30T04:01:59;9.05;;;7.15;;
72085;SDS011;64750;52.134;5.424;2023-08-30T04:04:26;7.43;;;6.75;;
72085;SDS011;64750;52.134;5.424;2023-08-30T04:06:53;10.27;;;7.82;;
72085;SDS011;64750;52.134;5.424;2023-08-30T04:09:19;6.78;;;6.10;;
72085;SDS011;64750;52.134;5.424;2023-08-30T04:11:47;7.77;;;6.90;;
72085;SDS011;64750;52.134;5.424;2023-08-30T04:14:13;9.45;;;6.82;;
72085;SDS011;64750;52.134;5.424;2023-08-30T04:16:40;9.23;;;6.78;;
72085;SDS011;64750;52.134;5.424;2023-08-30T04:19:06;8.60;;;7.25;;
72085;SDS011;64750;52.134;5.424;2023-08-30T04:21:33;8.98;;;6.80;;
72085;SDS011;64750;52.134;5.424;2023-08-30T04:23:59;8.00;;;7.23;;
72085;SDS011;64750;52.134;5.424;2023-08-30T04:26:26;8.98;;;7.45;;
72085;SDS011;64750;52.134;5.424;2023-08-30T04:28:52;9.02;;;7.00;;
72085;SDS011;64750;52.134;5.424;2023-08-30T04:31:19;8.75;;;6.78;;
72085;SDS011;64750;52.134;5.424;2023-08-30T04:33:45;7.60;;;6.28;;
72085;SDS011;64750;52.134;5.424;2023-08-30T04:36:12;7.67;;;6.60;;
72085;SDS011;64750;52.134;5.424;2023-08-30T04:38:38;8.15;;;7.35;;
72085;SDS011;64750;52.134;5.424;2023-08-30T04:41:17;8.50;;;7.15;;
72085;SDS011;64750;52.134;5.424;2023-08-30T04:43:44;7.13;;;6.53;;
72085;SDS011;64750;52.134;5.424;2023-08-30T04:46:10;7.07;;;6.38;;
72085;SDS011;64750;52.134;5.424;2023-08-30T04:48:37;7.67;;;6.60;;
72085;SDS011;64750;52.134;5.424;2023-08-30T04:51:03;10.38;;;6.68;;
72085;SDS011;64750;52.134;5.424;2023-08-30T04:53:30;8.70;;;7.13;;
72085;SDS011;64750;52.134;5.424;2023-08-30T04:55:57;7.75;;;6.53;;
72085;SDS011;64750;52.134;5.424;2023-08-30T04:58:26;8.25;;;6.85;;
72085;SDS011;64750;52.134;5.424;2023-08-30T05:00:54;6.87;;;6.17;;
72085;SDS011;64750;52.134;5.424;2023-08-30T05:03:22;7.32;;;6.63;;
72085;SDS011;64750;52.134;5.424;2023-08-30T05:05:49;10.18;;;7.07;;
72085;SDS011;64750;52.134;5.424;2023-08-30T05:08:15;8.40;;;6.65;;
72085;SDS011;64750;52.134;5.424;2023-08-30T05:10:41;7.68;;;6.97;;
72085;SDS011;64750;52.134;5.424;2023-08-30T05:13:09;6.90;;;6.20;;
72085;SDS011;64750;52.134;5.424;2023-08-30T05:15:36;11.52;;;6.85;;
72085;SDS011;64750;52.134;5.424;2023-08-30T05:18:03;7.05;;;6.35;;
72085;SDS011;64750;52.134;5.424;2023-08-30T05:20:30;7.65;;;6.65;;
72085;SDS011;64750;52.134;5.424;2023-08-30T05:22:57;9.43;;;6.68;;
72085;SDS011;64750;52.134;5.424;2023-08-30T05:25:23;8.20;;;7.40;;
72085;SDS011;64750;52.134;5.424;2023-08-30T05:27:50;8.40;;;6.43;;
72085;SDS011;64750;52.134;5.424;2023-08-30T05:30:17;7.15;;;6.40;;
72085;SDS011;64750;52.134;5.424;2023-08-30T05:32:43;7.32;;;6.70;;
72085;SDS011;64750;52.134;5.424;2023-08-30T05:35:10;8.38;;;6.65;;
72085;SDS011;64750;52.134;5.424;2023-08-30T05:37:37;7.73;;;6.90;;
72085;SDS011;64750;52.134;5.424;2023-08-30T05:40:03;7.15;;;6.45;;
72085;SDS011;64750;52.134;5.424;2023-08-30T05:42:30;7.90;;;6.65;;
72085;SDS011;64750;52.134;5.424;2023-08-30T05:44:57;7.30;;;6.60;;
72085;SDS011;64750;52.134;5.424;2023-08-30T05:47:23;7.55;;;6.85;;
72085;SDS011;64750;52.134;5.424;2023-08-30T05:49:50;7.13;;;6.43;;
72085;SDS011;64750;52.134;5.424;2023-08-30T05:52:16;9.50;;;6.90;;
72085;SDS011;64750;52.134;5.424;2023-08-30T05:54:44;7.85;;;6.93;;
72085;SDS011;64750;52.134;5.424;2023-08-30T05:57:10;7.68;;;7.05;;
72085;SDS011;64750;52.134;5.424;2023-08-30T05:59:37;9.35;;;7.20;;
72085;SDS011;64750;52.134;5.424;2023-08-30T06:02:03;8.40;;;6.60;;
72085;SDS011;64750;52.134;5.424;2023-08-30T06:04:30;8.13;;;6.88;;
72085;SDS011;64750;52.134;5.424;2023-08-30T06:06:57;7.38;;;6.78;;
72085;SDS011;64750;52.134;5.424;2023-08-30T06:09:23;10.48;;;7.38;;
72085;SDS011;64750;52.134;5.424;2023-08-30T06:11:50;8.00;;;7.03;;
72085;SDS011;64750;52.134;5.424;2023-08-30T06:14:16;8.33;;;7.50;;
72085;SDS011;64750;52.134;5.424;2023-08-30T06:16:43;7.82;;;6.63;;
72085;SDS011;64750;52.134;5.424;2023-08-30T06:19:10;7.93;;;7.13;;
72085;SDS011;64750;52.134;5.424;2023-08-30T06:21:37;8.30;;;7.03;;
72085;SDS011;64750;52.134;5.424;2023-08-30T06:24:04;7.50;;;6.75;;
72085;SDS011;64750;52.134;5.424;2023-08-30T06:26:30;7.60;;;6.90;;
72085;SDS011;64750;52.134;5.424;2023-08-30T06:28:57;7.03;;;6.30;;
72085;SDS011;64750;52.134;5.424;2023-08-30T06:31:30;8.00;;;6.72;;
72085;SDS011;64750;52.134;5.424;2023-08-30T06:33:58;7.65;;;6.93;;
72085;SDS011;64750;52.134;5.424;2023-08-30T06:36:25;8.45;;;7.13;;
72085;SDS011;64750;52.134;5.424;2023-08-30T06:38:51;7.23;;;6.27;;
72085;SDS011;64750;52.134;5.424;2023-08-30T06:41:18;11.48;;;7.32;;
72085;SDS011;64750;52.134;5.424;2023-08-30T06:43:44;8.65;;;7.32;;
72085;SDS011;64750;52.134;5.424;2023-08-30T06:46:11;9.48;;;7.20;;
72085;SDS011;64750;52.134;5.424;2023-08-30T06:48:37;10.85;;;7.22;;
72085;SDS011;64750;52.134;5.424;2023-08-30T06:51:04;7.60;;;6.80;;
72085;SDS011;64750;52.134;5.424;2023-08-30T06:53:30;7.80;;;6.93;;
72085;SDS011;64750;52.134;5.424;2023-08-30T06:55:57;7.80;;;7.05;;
72085;SDS011;64750;52.134;5.424;2023-08-30T06:58:27;7.90;;;7.10;;
72085;SDS011;64750;52.134;5.424;2023-08-30T07:00:56;11.55;;;7.13;;
72085;SDS011;64750;52.134;5.424;2023-08-30T07:03:26;7.33;;;6.73;;
72085;SDS011;64750;52.134;5.424;2023-08-30T07:05:53;7.78;;;7.03;;
72085;SDS011;64750;52.134;5.424;2023-08-30T07:08:19;7.03;;;6.30;;
72085;SDS011;64750;52.134;5.424;2023-08-30T07:10:46;9.25;;;6.88;;
72085;SDS011;64750;52.134;5.424;2023-08-30T07:13:13;7.57;;;6.80;;
72085;SDS011;64750;52.134;5.424;2023-08-30T07:15:40;7.50;;;6.87;;
72085;SDS011;64750;52.134;5.424;2023-08-30T07:18:08;7.97;;;6.78;;
72085;SDS011;64750;52.134;5.424;2023-08-30T07:20:38;10.85;;;7.00;;
72085;SDS011;64750;52.134;5.424;2023-08-30T07:23:05;7.10;;;6.40;;
72085;SDS011;64750;52.134;5.424;2023-08-30T07:25:35;8.05;;;7.28;;
72085;SDS011;64750;52.134;5.424;2023-08-30T07:28:03;7.23;;;6.37;;
72085;SDS011;64750;52.134;5.424;2023-08-30T07:30:30;7.00;;;6.32;;
72085;SDS011;64750;52.134;5.424;2023-08-30T07:32:57;6.97;;;6.35;;
72085;SDS011;64750;52.134;5.424;2023-08-30T07:35:26;8.07;;;6.90;;
72085;SDS011;64750;52.134;5.424;2023-08-30T07:37:52;6.53;;;5.97;;
72085;SDS011;64750;52.134;5.424;2023-08-30T07:40:19;6.67;;;6.03;;
72085;SDS011;64750;52.134;5.424;2023-08-30T07:42:47;7.13;;;5.85;;
72085;SDS011;64750;52.134;5.424;2023-08-30T07:45:13;6.78;;;6.18;;
72085;SDS011;64750;52.134;5.424;2023-08-30T07:47:40;11.65;;;5.93;;
72085;SDS011;64750;52.134;5.424;2023-08-30T07:50:07;7.28;;;5.40;;
72085;SDS011;64750;52.134;5.424;2023-08-30T07:52:33;6.60;;;5.17;;
72085;SDS011;64750;52.134;5.424;2023-08-30T07:55:11;6.30;;;5.45;;
72085;SDS011;64750;52.134;5.424;2023-08-30T07:57:38;5.43;;;5.03;;
72085;SDS011;64750;52.134;5.424;2023-08-30T08:00:05;6.03;;;5.35;;
72085;SDS011;64750;52.134;5.424;2023-08-30T08:02:32;6.78;;;5.50;;
72085;SDS011;64750;52.134;5.424;2023-08-30T08:04:58;6.47;;;5.83;;
72085;SDS011;64750;52.134;5.424;2023-08-30T08:07:25;6.35;;;5.70;;
72085;SDS011;64750;52.134;5.424;2023-08-30T08:09:54;6.35;;;5.55;;
72085;SDS011;64750;52.134;5.424;2023-08-30T08:12:21;5.78;;;5.38;;
72085;SDS011;64750;52.134;5.424;2023-08-30T08:14:50;5.72;;;5.22;;
72085;SDS011;64750;52.134;5.424;2023-08-30T08:17:17;8.50;;;4.93;;
72085;SDS011;64750;52.134;5.424;2023-08-30T08:19:44;7.47;;;5.45;;
72085;SDS011;64750;52.134;5.424;2023-08-30T08:22:11;6.18;;;5.57;;
72085;SDS011;64750;52.134;5.424;2023-08-30T08:24:37;5.97;;;5.47;;
72085;SDS011;64750;52.134;5.424;2023-08-30T08:27:04;5.57;;;4.90;;
72085;SDS011;64750;52.134;5.424;2023-08-30T08:29:32;5.53;;;5.13;;
72085;SDS011;64750;52.134;5.424;2023-08-30T08:31:58;5.50;;;5.00;;
72085;SDS011;64750;52.134;5.424;2023-08-30T08:34:25;5.38;;;4.72;;
72085;SDS011;64750;52.134;5.424;2023-08-30T08:36:51;4.82;;;4.43;;
72085;SDS011;64750;52.134;5.424;2023-08-30T08:39:18;5.45;;;4.95;;
72085;SDS011;64750;52.134;5.424;2023-08-30T08:41:45;4.97;;;4.47;;
72085;SDS011;64750;52.134;5.424;2023-08-30T08:44:12;6.57;;;4.30;;
72085;SDS011;64750;52.134;5.424;2023-08-30T08:46:39;5.18;;;4.68;;
72085;SDS011;64750;52.134;5.424;2023-08-30T08:49:14;4.60;;;4.15;;
72085;SDS011;64750;52.134;5.424;2023-08-30T08:51:42;5.10;;;4.60;;
72085;SDS011;64750;52.134;5.424;2023-08-30T08:54:10;5.10;;;4.60;;
72085;SDS011;64750;52.134;5.424;2023-08-30T08:56:38;7.05;;;4.22;;
72085;SDS011;64750;52.134;5.424;2023-08-30T08:59:05;5.10;;;4.60;;
72085;SDS011;64750;52.134;5.424;2023-08-30T09:01:33;4.50;;;4.20;;
72085;SDS011;64750;52.134;5.424;2023-08-30T09:04:05;4.47;;;4.18;;
72085;SDS011;64750;52.134;5.424;2023-08-30T09:06:34;4.47;;;3.93;;
72085;SDS011;64750;52.134;5.424;2023-08-30T09:09:02;4.32;;;3.92;;
72085;SDS011;64750;52.134;5.424;2023-08-30T09:11:32;4.32;;;3.97;;
72085;SDS011;64750;52.134;5.424;2023-08-30T09:14:02;4.75;;;4.28;;
72085;SDS011;64750;52.134;5.424;2023-08-30T09:16:28;4.55;;;4.20;;
72085;SDS011;64750;52.134;5.424;2023-08-30T09:19:02;4.57;;;4.20;;
72085;SDS011;64750;52.134;5.424;2023-08-30T09:21:36;4.80;;;4.43;;
72085;SDS011;64750;52.134;5.424;2023-08-30T09:24:03;4.85;;;4.45;;
72085;SDS011;64750;52.134;5.424;2023-08-30T09:26:32;5.30;;;3.38;;
72085;SDS011;64750;52.134;5.424;2023-08-30T09:29:02;3.97;;;3.67;;
72085;SDS011;64750;52.134;5.424;2023-08-30T09:31:33;4.13;;;3.83;;
72085;SDS011;64750;52.134;5.424;2023-08-30T09:34:00;4.45;;;3.67;;
72085;SDS011;64750;52.134;5.424;2023-08-30T09:36:34;4.13;;;3.83;;
72085;SDS011;64750;52.134;5.424;2023-08-30T09:39:11;4.75;;;4.35;;
72085;SDS011;64750;52.134;5.424;2023-08-30T09:41:48;4.82;;;4.43;;
72085;SDS011;64750;52.134;5.424;2023-08-30T09:44:16;4.50;;;4.10;;
72085;SDS011;64750;52.134;5.424;2023-08-30T09:46:45;4.28;;;3.95;;
72085;SDS011;64750;52.134;5.424;2023-08-30T09:49:18;4.68;;;3.90;;
72085;SDS011;64750;52.134;5.424;2023-08-30T09:51:48;4.80;;;4.38;;
72085;SDS011;64750;52.134;5.424;2023-08-30T09:54:16;4.50;;;4.10;;
72085;SDS011;64750;52.134;5.424;2023-08-30T09:57:04;4.90;;;4.00;;
72085;SDS011;64750;52.134;5.424;2023-08-30T09:59:31;4.68;;;4.28;;
72085;SDS011;64750;52.134;5.424;2023-08-30T10:01:59;5.18;;;4.78;;
72085;SDS011;64750;52.134;5.424;2023-08-30T10:04:26;4.82;;;4.43;;
72085;SDS011;64750;52.134;5.424;2023-08-30T10:06:54;5.47;;;4.97;;
72085;SDS011;64750;52.134;5.424;2023-08-30T10:09:24;5.90;;;4.17;;
72085;SDS011;64750;52.134;5.424;2023-08-30T10:11:51;5.60;;;5.07;;
72085;SDS011;64750;52.134;5.424;2023-08-30T10:14:17;6.60;;;5.55;;
72085;SDS011;64750;52.134;5.424;2023-08-30T10:16:44;6.82;;;5.82;;
72085;SDS011;64750;52.134;5.424;2023-08-30T10:19:25;6.22;;;5.63;;
72085;SDS011;64750;52.134;5.424;2023-08-30T10:22:03;5.87;;;5.47;;
72085;SDS011;64750;52.134;5.424;2023-08-30T10:24:32;6.03;;;5.47;;
72085;SDS011;64750;52.134;5.424;2023-08-30T10:27:22;6.35;;;5.70;;
72085;SDS011;64750;52.134;5.424;2023-08-30T10:29:50;7.13;;;5.85;;
72085;SDS011;64750;52.134;5.424;2023-08-30T10:32:21;7.18;;;6.50;;
72085;SDS011;64750;52.134;5.424;2023-08-30T10:34:51;7.27;;;6.77;;
72085;SDS011;64750;52.134;5.424;2023-08-30T10:37:25;6.90;;;6.47;;
72085;SDS011;64750;52.134;5.424;2023-08-30T10:39:53;6.53;;;5.97;;
72085;SDS011;64750;52.134;5.424;2023-08-30T10:42:26;7.30;;;6.47;;
72085;SDS011;64750;52.134;5.424;2023-08-30T10:44:56;6.63;;;6.22;;
72085;SDS011;64750;52.134;5.424;2023-08-30T10:47:30;6.90;;;6.40;;
72085;SDS011;64750;52.134;5.424;2023-08-30T10:49:59;6.00;;;5.55;;
72085;SDS011;64750;52.134;5.424;2023-08-30T10:52:27;5.03;;;4.60;;
72085;SDS011;64750;52.134;5.424;2023-08-30T10:55:04;4.32;;;4.03;;
72085;SDS011;64750;52.134;5.424;2023-08-30T10:57:35;4.22;;;3.83;;
72085;SDS011;64750;52.134;5.424;2023-08-30T11:02:33;5.80;;;4.22;;
72085;SDS011;64750;52.134;5.424;2023-08-30T11:05:00;5.20;;;3.72;;
72085;SDS011;64750;52.134;5.424;2023-08-30T11:07:28;5.40;;;3.50;;
72085;SDS011;64750;52.134;5.424;2023-08-30T11:09:55;4.25;;;3.45;;
72085;SDS011;64750;52.134;5.424;2023-08-30T11:12:22;3.30;;;2.90;;
72085;SDS011;64750;52.134;5.424;2023-08-30T11:14:49;3.60;;;2.85;;
72085;SDS011;64750;52.134;5.424;2023-08-30T11:17:16;4.65;;;2.58;;
72085;SDS011;64750;52.134;5.424;2023-08-30T11:19:45;3.45;;;2.05;;
72085;SDS011;64750;52.134;5.424;2023-08-30T11:22:12;3.13;;;1.98;;
72085;SDS011;64750;52.134;5.424;2023-08-30T11:24:39;3.13;;;1.80;;
72085;SDS011;64750;52.134;5.424;2023-08-30T11:27:06;5.15;;;2.10;;
72085;SDS011;64750;52.134;5.424;2023-08-30T11:29:33;4.88;;;2.03;;
72085;SDS011;64750;52.134;5.424;2023-08-30T11:31:59;5.53;;;1.73;;
72085;SDS011;64750;52.134;5.424;2023-08-30T11:34:26;5.15;;;2.00;;
72085;SDS011;64750;52.134;5.424;2023-08-30T11:36:52;2.97;;;2.17;;
72085;SDS011;64750;52.134;5.424;2023-08-30T11:39:20;3.05;;;1.95;;
72085;SDS011;64750;52.134;5.424;2023-08-30T11:41:48;3.17;;;2.10;;
72085;SDS011;64750;52.134;5.424;2023-08-30T11:44:17;3.20;;;2.00;;
72085;SDS011;64750;52.134;5.424;2023-08-30T11:46:43;4.38;;;2.42;;
72085;SDS011;64750;52.134;5.424;2023-08-30T11:49:10;8.07;;;2.00;;
72085;SDS011;64750;52.134;5.424;2023-08-30T11:51:37;2.72;;;1.75;;
72085;SDS011;64750;52.134;5.424;2023-08-30T11:54:04;4.72;;;2.00;;
72085;SDS011;64750;52.134;5.424;2023-08-30T11:56:30;3.40;;;2.15;;
72085;SDS011;64750;52.134;5.424;2023-08-30T11:58:57;3.83;;;1.85;;
72085;SDS011;64750;52.134;5.424;2023-08-30T12:01:24;4.33;;;1.63;;
72085;SDS011;64750;52.134;5.424;2023-08-30T12:03:50;3.83;;;2.10;;
72085;SDS011;64750;52.134;5.424;2023-08-30T12:06:17;4.63;;;2.25;;
72085;SDS011;64750;52.134;5.424;2023-08-30T12:08:44;2.97;;;1.80;;
72085;SDS011;64750;52.134;5.424;2023-08-30T12:11:17;3.20;;;1.80;;
72085;SDS011;64750;52.134;5.424;2023-08-30T12:13:45;9.50;;;2.27;;
72085;SDS011;64750;52.134;5.424;2023-08-30T12:16:16;4.90;;;1.60;;
72085;SDS011;64750;52.134;5.424;2023-08-30T12:18:44;3.42;;;1.85;;
72085;SDS011;64750;52.134;5.424;2023-08-30T12:21:10;3.42;;;1.55;;
72085;SDS011;64750;52.134;5.424;2023-08-30T12:23:39;4.82;;;1.88;;
72085;SDS011;64750;52.134;5.424;2023-08-30T12:26:07;4.80;;;1.43;;
72085;SDS011;64750;52.134;5.424;2023-08-30T12:28:38;7.38;;;1.45;;
72085;SDS011;64750;52.134;5.424;2023-08-30T12:31:06;3.92;;;1.38;;
72085;SDS011;64750;52.134;5.424;2023-08-30T12:33:33;5.82;;;1.40;;
72085;SDS011;64750;52.134;5.424;2023-08-30T12:36:00;6.10;;;1.52;;
72085;SDS011;64750;52.134;5.424;2023-08-30T12:38:27;3.80;;;1.43;;
72085;SDS011;64750;52.134;5.424;2023-08-30T12:40:55;2.60;;;1.20;;
72085;SDS011;64750;52.134;5.424;2023-08-30T12:43:23;4.38;;;1.50;;
72085;SDS011;64750;52.134;5.424;2023-08-30T12:45:50;3.60;;;1.60;;
72085;SDS011;64750;52.134;5.424;2023-08-30T12:48:17;3.90;;;1.35;;
72085;SDS011;64750;52.134;5.424;2023-08-30T12:50:45;3.87;;;1.30;;
72085;SDS011;64750;52.134;5.424;2023-08-30T12:53:13;2.92;;;1.27;;
72085;SDS011;64750;52.134;5.424;2023-08-30T12:55:42;3.45;;;1.10;;
72085;SDS011;64750;52.134;5.424;2023-08-30T12:58:09;3.53;;;1.20;;
72085;SDS011;64750;52.134;5.424;2023-08-30T13:00:36;4.93;;;1.25;;
72085;SDS011;64750;52.134;5.424;2023-08-30T13:03:02;3.13;;;1.20;;
72085;SDS011;64750;52.134;5.424;2023-08-30T13:05:32;3.25;;;1.33;;
72085;SDS011;64750;52.134;5.424;2023-08-30T13:07:59;2.55;;;1.17;;
72085;SDS011;64750;52.134;5.424;2023-08-30T13:10:26;3.55;;;1.20;;
72085;SDS011;64750;52.134;5.424;2023-08-30T13:12:53;4.82;;;1.48;;
72085;SDS011;64750;52.134;5.424;2023-08-30T13:15:20;4.57;;;1.60;;
72085;SDS011;64750;52.134;5.424;2023-08-30T13:17:46;3.42;;;1.15;;
72085;SDS011;64750;52.134;5.424;2023-08-30T13:20:13;5.60;;;1.35;;
72085;SDS011;64750;52.134;5.424;2023-08-30T13:22:39;3.28;;;1.00;;
72085;SDS011;64750;52.134;5.424;2023-08-30T13:25:06;5.28;;;1.13;;
72085;SDS011;64750;52.134;5.424;2023-08-30T13:27:34;6.20;;;1.30;;
72085;SDS011;64750;52.134;5.424;2023-08-30T13:30:01;5.05;;;1.27;;
72085;SDS011;64750;52.134;5.424;2023-08-30T13:32:27;3.35;;;1.13;;
72085;SDS011;64750;52.134;5.424;2023-08-30T13:34:54;2.80;;;1.05;;
72085;SDS011;64750;52.134;5.424;2023-08-30T13:37:23;2.88;;;1.08;;
72085;SDS011;64750;52.134;5.424;2023-08-30T13:39:52;4.10;;;1.53;;
72085;SDS011;64750;52.134;5.424;2023-08-30T13:42:20;3.13;;;1.35;;
72085;SDS011;64750;52.134;5.424;2023-08-30T13:44:50;2.90;;;1.15;;
72085;SDS011;64750;52.134;5.424;2023-08-30T13:47:17;3.42;;;1.00;;
72085;SDS011;64750;52.134;5.424;2023-08-30T13:49:43;6.65;;;1.08;;
72085;SDS011;64750;52.134;5.424;2023-08-30T13:52:12;2.77;;;0.90;;
72085;SDS011;64750;52.134;5.424;2023-08-30T13:54:39;2.88;;;1.42;;
72085;SDS011;64750;52.134;5.424;2023-08-30T13:57:05;10.00;;;1.60;;
72085;SDS011;64750;52.134;5.424;2023-08-30T13:59:32;2.95;;;1.48;;
72085;SDS011;64750;52.134;5.424;2023-08-30T14:01:58;7.03;;;1.20;;
72085;SDS011;64750;52.134;5.424;2023-08-30T14:04:25;2.30;;;0.83;;
72085;SDS011;64750;52.134;5.424;2023-08-30T14:06:52;5.65;;;1.27;;
72085;SDS011;64750;52.134;5.424;2023-08-30T14:09:18;4.80;;;1.00;;
72085;SDS011;64750;52.134;5.424;2023-08-30T14:11:48;2.83;;;1.10;;
72085;SDS011;64750;52.134;5.424;2023-08-30T14:14:14;2.15;;;0.80;;
72085;SDS011;64750;52.134;5.424;2023-08-30T14:16:41;2.77;;;1.00;;
72085;SDS011;64750;52.134;5.424;2023-08-30T14:19:07;3.70;;;1.20;;
72085;SDS011;64750;52.134;5.424;2023-08-30T14:21:34;2.22;;;0.70;;
72085;SDS011;64750;52.134;5.424;2023-08-30T14:24:01;3.10;;;0.70;;
72085;SDS011;64750;52.134;5.424;2023-08-30T14:26:27;5.28;;;1.00;;
72085;SDS011;64750;52.134;5.424;2023-08-30T14:28:54;2.50;;;1.00;;
72085;SDS011;64750;52.134;5.424;2023-08-30T14:31:21;6.03;;;1.00;;
72085;SDS011;64750;52.134;5.424;2023-08-30T14:33:47;1.98;;;0.80;;
72085;SDS011;64750;52.134;5.424;2023-08-30T14:36:14;1.95;;;0.82;;
72085;SDS011;64750;52.134;5.424;2023-08-30T14:38:42;3.33;;;1.38;;
72085;SDS011;64750;52.134;5.424;2023-08-30T14:41:08;1.27;;;0.87;;
72085;SDS011;64750;52.134;5.424;2023-08-30T14:43:35;4.75;;;0.88;;
72085;SDS011;64750;52.134;5.424;2023-08-30T14:46:02;4.10;;;0.80;;
72085;SDS011;64750;52.134;5.424;2023-08-30T14:48:37;3.72;;;1.30;;
72085;SDS011;64750;52.134;5.424;2023-08-30T14:51:04;4.95;;;1.00;;
72085;SDS011;64750;52.134;5.424;2023-08-30T14:53:32;4.03;;;1.20;;
72085;SDS011;64750;52.134;5.424;2023-08-30T14:55:58;3.22;;;1.50;;
72085;SDS011;64750;52.134;5.424;2023-08-30T14:58:25;2.90;;;1.25;;
72085;SDS011;64750;52.134;5.424;2023-08-30T15:00:52;4.07;;;1.25;;